This is the latest recevied weather packets stored in our database for station/object OK6FS-6. If no packets are shown the sender has not sent any weather packets the latest 10 day(s).
| Time | Temp. | Humidity | Pressure | Rain* | Wind** | Luminosity | Snow |
|---|---|---|---|---|---|---|---|
| 1777761754 | 11.11° C | 55% | 1021.8 hPa | - | - | - | - |
| 1777758154 | 12.78° C | 53% | 1021.8 hPa | - | - | - | - |
| 1777755264 | 14.44° C | 49% | 1022 hPa | - | - | - | - |
| 1777753838 | 15° C | 48% | 1022.1 hPa | - | - | - | - |
| 1777745189 | 22.78° C | 37% | 1021.6 hPa | - | - | - | - |
| 1777744477 | 23.33° C | 34% | 1021.6 hPa | - | - | - | - |
| 1777743051 | 23.89° C | 29% | 1021.7 hPa | - | - | - | - |
| 1777742339 | 23.89° C | 29% | 1021.7 hPa | - | - | - | - |
| 1777741586 | 24.44° C | 28% | 1021.8 hPa | - | - | - | - |
| 1777733671 | 25° C | 28% | 1023.1 hPa | - | - | - | - |
| 1777727914 | 25° C | 29% | 1024 hPa | - | - | - | - |
| 1777722874 | 23.89° C | 31% | 1025.2 hPa | - | - | - | - |
| 1777722151 | 24.44° C | 31% | 1025.4 hPa | - | - | - | - |
| 1777720002 | 23.33° C | 30% | 1026 hPa | - | - | - | - |
| 1777709922 | 22.78° C | 33% | 1028.1 hPa | - | - | - | - |
| 1777705606 | 21.11° C | 39% | 1028.4 hPa | - | - | - | - |
| 1777704902 | 22.22° C | 41% | 1028.5 hPa | - | - | - | - |
| 1777693355 | 6.67° C | 71% | 1028.2 hPa | - | - | - | - |
| 1777691196 | 7.22° C | 69% | 1028.1 hPa | - | - | - | - |
| 1777689750 | 7.22° C | 68% | 1028.2 hPa | - | - | - | - |
| 1777688313 | 7.22° C | 68% | 1028.2 hPa | - | - | - | - |
| 1777680397 | 10° C | 59% | 1028.3 hPa | - | - | - | - |
| 1777678962 | 10° C | 59% | 1028.3 hPa | - | - | - | - |
| 1777678229 | 10° C | 58% | 1028.3 hPa | - | - | - | - |
| 1777668875 | 14.44° C | 49% | 1028.2 hPa | - | - | - | - |
* Rain since midnight (hover to see other rain measurements)
** Current wind speed in m/s (hover to see current wind gust speed)